Terminal Aerodrome Forecast
Issued by NWS

Home | Current Version | Previous Version | Text Only | Print | Product List | Glossary Off
Versions: 1 2 3 4 5 6 7 8 9 10 11 12 13

578
FTUS43 KTOP 091125
TAFMHK
TAF
KMHK 091125Z 0912/1012 33007KT P6SM SKC
     FM091400 33013G22KT P6SM SCT100
     FM100000 32003KT P6SM FEW040 BKN100=

USA.gov is the U.S. government's official web portal to all federal, state and local government web resources and services.